createdAt,value
2019-03-05T00:00:59.486Z,22.40
2019-03-05T00:03:28.414Z,21.10
2019-03-05T00:05:57.277Z,21.17
2019-03-05T00:08:26.133Z,21.87
2019-03-05T00:10:54.969Z,23.63
2019-03-05T00:13:23.749Z,21.93
2019-03-05T00:15:52.999Z,22.97
2019-03-05T00:18:21.760Z,22.37
2019-03-05T00:20:50.531Z,22.60
2019-03-05T00:23:38.283Z,22.53
2019-03-05T00:26:07.127Z,22.90
2019-03-05T00:28:38.878Z,21.63
2019-03-05T00:31:10.633Z,22.60
2019-03-05T00:33:45.254Z,24.70
2019-03-05T00:36:16.935Z,26.13
2019-03-05T00:39:12.734Z,24.83
2019-03-05T00:41:49.958Z,26.33
2019-03-05T00:44:53.029Z,26.10
2019-03-05T00:47:45.525Z,29.43
2019-03-05T00:50:28.850Z,24.23
2019-03-05T00:53:03.364Z,25.03
2019-03-05T00:55:51.258Z,26.83
2019-03-05T00:58:32.108Z,26.53
2019-03-05T01:01:06.502Z,26.37
2019-03-05T01:03:59.266Z,32.50
2019-03-05T01:06:28.240Z,30.10
2019-03-05T01:08:57.820Z,25.73
2019-03-05T01:11:26.764Z,25.47
2019-03-05T01:13:55.523Z,24.50
2019-03-05T01:16:28.989Z,23.80
2019-03-05T01:18:57.751Z,22.70
2019-03-05T01:21:26.594Z,23.30
2019-03-05T01:23:55.361Z,24.07
2019-03-05T01:26:24.246Z,24.37
2019-03-05T01:28:53.078Z,27.10
2019-03-05T01:31:23.486Z,29.07
2019-03-05T01:36:42.984Z,28.40
2019-03-05T01:39:16.151Z,26.47
2019-03-05T01:41:44.925Z,25.07
2019-03-05T01:44:13.740Z,27.00
2019-03-05T01:46:42.579Z,24.13
2019-03-05T01:49:11.404Z,22.67
2019-03-05T01:51:40.240Z,21.47
2019-03-05T01:54:09.071Z,23.87
2019-03-05T01:56:37.901Z,21.67
2019-03-05T01:59:06.680Z,20.03
2019-03-05T02:01:35.463Z,19.70
2019-03-05T02:04:04.307Z,21.50
2019-03-05T02:06:33.139Z,26.10
2019-03-05T02:09:01.990Z,28.97
2019-03-05T02:11:30.926Z,34.53
2019-03-05T02:13:59.789Z,25.33
2019-03-05T02:16:28.624Z,24.77
2019-03-05T02:19:09.260Z,25.67
2019-03-05T02:21:38.096Z,21.87
2019-03-05T02:24:21.926Z,23.60
2019-03-05T02:27:18.768Z,22.90
2019-03-05T02:29:59.036Z,28.30
2019-03-05T02:32:39.720Z,28.43
2019-03-05T02:35:19.691Z,24.00
2019-03-05T02:38:05.711Z,23.73
2019-03-05T02:40:36.539Z,23.90
2019-03-05T02:43:28.826Z,24.50
2019-03-05T02:46:00.499Z,24.00
2019-03-05T02:48:46.872Z,22.80
2019-03-05T02:51:37.722Z,22.63
2019-03-05T02:54:18.356Z,22.53
2019-03-05T02:56:53.015Z,23.40
2019-03-05T02:59:21.853Z,24.20
2019-03-05T03:02:08.197Z,24.10
2019-03-05T03:04:41.562Z,23.07
2019-03-05T03:07:10.396Z,25.03
2019-03-05T03:09:42.148Z,21.73
2019-03-05T03:12:10.995Z,24.30
2019-03-05T03:14:39.838Z,23.03
2019-03-05T03:17:08.662Z,23.60
2019-03-05T03:19:37.435Z,23.17
2019-03-05T03:22:06.208Z,23.23
2019-03-05T03:24:34.970Z,22.63
2019-03-05T03:27:03.794Z,24.43
2019-03-05T03:29:32.570Z,23.77
2019-03-05T03:32:01.649Z,23.70
2019-03-05T03:34:30.577Z,23.17
2019-03-05T03:36:59.324Z,24.63
2019-03-05T03:39:28.157Z,24.87
2019-03-05T03:41:56.926Z,24.87
2019-03-05T03:44:25.695Z,23.63
2019-03-05T03:46:54.469Z,24.10
2019-03-05T03:49:23.233Z,24.07
2019-03-05T03:51:52.076Z,25.00
2019-03-05T03:54:20.844Z,25.30
2019-03-05T03:56:49.597Z,27.07
2019-03-05T03:59:18.439Z,25.37
2019-03-05T04:01:47.226Z,28.23
2019-03-05T04:04:15.993Z,28.17
2019-03-05T04:06:44.846Z,29.80
2019-03-05T04:09:13.637Z,30.07
2019-03-05T04:11:42.467Z,29.90
2019-03-05T04:14:11.316Z,29.67
2019-03-05T04:16:40.162Z,33.17
2019-03-05T04:19:10.583Z,36.83
2019-03-05T04:21:39.339Z,35.63
2019-03-05T04:24:08.189Z,33.93
2019-03-05T04:26:37.050Z,29.90
2019-03-05T04:29:05.827Z,29.30
2019-03-05T04:31:34.614Z,29.43
2019-03-05T04:34:03.375Z,37.87
2019-03-05T04:36:32.134Z,36.00
2019-03-05T04:39:00.975Z,30.47
2019-03-05T04:41:29.735Z,26.10
2019-03-05T04:43:58.585Z,24.87
2019-03-05T04:46:28.997Z,23.60
2019-03-05T04:49:02.369Z,25.23
2019-03-05T04:51:32.783Z,22.37
2019-03-05T04:54:01.607Z,26.30
2019-03-05T04:56:30.456Z,30.47
2019-03-05T04:58:59.558Z,32.33
2019-03-05T05:01:28.413Z,34.27
2019-03-05T05:03:57.341Z,28.00
2019-03-05T05:06:26.187Z,31.97
2019-03-05T05:08:55.032Z,40.03
2019-03-05T05:11:23.837Z,44.07
2019-03-05T05:13:52.731Z,41.67
2019-03-05T05:16:21.571Z,53.23
2019-03-05T05:18:50.418Z,64.37
2019-03-05T05:21:19.264Z,117.20
2019-03-05T05:23:48.223Z,60.73
2019-03-05T05:26:17.839Z,70.77
2019-03-05T05:28:46.791Z,68.57
2019-03-05T05:31:15.630Z,72.47
2019-03-05T05:33:44.471Z,39.40
2019-03-05T05:36:13.489Z,38.03
2019-03-05T05:38:42.404Z,116.17
2019-03-05T05:41:11.281Z,126.93
2019-03-05T05:43:40.101Z,97.50
2019-03-05T05:46:08.943Z,59.33
2019-03-05T05:48:37.731Z,50.23
2019-03-05T05:51:06.559Z,44.03
2019-03-05T05:53:35.354Z,40.27
2019-03-05T05:56:04.179Z,35.87
2019-03-05T05:58:33.025Z,38.13
2019-03-05T06:01:03.422Z,31.37
2019-03-05T06:03:32.286Z,45.43
2019-03-05T06:06:01.045Z,51.50
2019-03-05T06:08:29.824Z,42.97
2019-03-05T06:10:58.663Z,33.17
2019-03-05T06:13:27.442Z,31.63
2019-03-05T06:15:56.215Z,28.30
2019-03-05T06:18:25.083Z,27.77
2019-03-05T06:20:53.904Z,27.53
2019-03-05T06:23:22.724Z,26.47
2019-03-05T06:25:51.502Z,29.27
2019-03-05T06:28:20.276Z,29.03
2019-03-05T06:30:49.108Z,31.33
2019-03-05T06:33:17.866Z,33.10
2019-03-05T06:35:46.727Z,35.93
2019-03-05T06:38:15.550Z,35.03
2019-03-05T06:40:44.388Z,33.77
2019-03-05T06:43:13.810Z,43.35
2019-03-05T06:45:42.650Z,47.33
2019-03-05T06:48:12.074Z,55.25
2019-03-05T06:50:40.866Z,50.08
2019-03-05T06:53:10.217Z,45.45
2019-03-05T06:55:39.570Z,46.45
2019-03-05T06:58:11.593Z,40.40
2019-03-05T07:00:41.126Z,35.60
2019-03-05T07:03:10.761Z,35.52
2019-03-05T07:06:15.780Z,35.95
2019-03-05T07:08:51.074Z,33.83
2019-03-05T07:11:23.426Z,35.88
2019-03-05T07:13:56.027Z,34.23
2019-03-05T07:16:39.904Z,33.78
2019-03-05T07:19:09.266Z,34.78
2019-03-05T07:22:02.670Z,34.40
2019-03-05T07:24:43.910Z,33.73
2019-03-05T07:27:14.777Z,34.45
2019-03-05T07:29:44.141Z,38.40
2019-03-05T07:32:13.653Z,36.08
2019-03-05T07:34:44.634Z,39.35
2019-03-05T07:37:14.212Z,40.43
2019-03-05T07:39:43.707Z,35.00
2019-03-05T07:42:13.294Z,35.43
2019-03-05T07:44:42.653Z,36.55
2019-03-05T07:47:12.174Z,34.83
2019-03-05T07:49:44.141Z,36.88
2019-03-05T07:52:12.707Z,37.08
2019-03-05T07:54:42.128Z,31.12
2019-03-05T07:57:11.494Z,30.97
2019-03-05T07:59:40.859Z,29.37
2019-03-05T08:02:10.308Z,31.57
2019-03-05T08:04:39.684Z,29.12
2019-03-05T08:07:09.315Z,28.30
2019-03-05T08:09:39.059Z,28.65
2019-03-05T08:12:29.539Z,29.87
2019-03-05T08:15:13.800Z,28.95
2019-03-05T08:17:43.168Z,31.23
2019-03-05T08:20:13.289Z,30.12
2019-03-05T08:22:42.676Z,33.00
2019-03-05T08:25:12.895Z,33.50
2019-03-05T08:27:42.336Z,31.07
2019-03-05T08:30:17.165Z,30.95
2019-03-05T08:35:27.981Z,30.75
2019-03-05T08:37:57.406Z,33.05
2019-03-05T08:40:26.784Z,34.25
2019-03-05T08:42:56.208Z,32.42
2019-03-05T08:45:29.581Z,31.77
2019-03-05T08:47:56.733Z,29.57
2019-03-05T08:50:26.158Z,30.55
2019-03-05T08:52:55.571Z,29.75
2019-03-05T08:58:05.673Z,26.50
2019-03-05T09:00:35.108Z,26.33
2019-03-05T09:03:04.482Z,26.73
2019-03-05T09:05:33.914Z,26.52
2019-03-05T09:08:03.342Z,25.82
2019-03-05T09:10:32.870Z,26.25
2019-03-05T09:13:02.331Z,25.72
2019-03-05T09:15:31.696Z,25.82
2019-03-05T09:18:01.145Z,26.42
2019-03-05T09:20:30.584Z,25.55
2019-03-05T09:23:00.010Z,25.97
2019-03-05T09:25:29.379Z,25.97
2019-03-05T09:27:58.811Z,27.05
2019-03-05T09:30:28.356Z,25.45
2019-03-05T09:32:57.717Z,26.15
2019-03-05T09:35:27.089Z,26.70
2019-03-05T09:37:56.534Z,27.25
2019-03-05T09:40:33.047Z,26.77
2019-03-05T09:43:02.397Z,26.15
2019-03-05T09:45:31.774Z,24.85
2019-03-05T09:48:01.142Z,25.85
2019-03-05T09:50:32.193Z,24.75
2019-03-05T09:53:02.219Z,25.50
2019-03-05T09:55:34.437Z,23.92
2019-03-05T09:58:08.367Z,23.40
2019-03-05T10:00:36.093Z,29.48
2019-03-05T10:03:06.025Z,25.27
2019-03-05T10:05:35.480Z,25.00
2019-03-05T10:08:05.519Z,25.23
2019-03-05T10:10:34.895Z,25.40
2019-03-05T10:13:04.702Z,25.57
2019-03-05T10:15:34.072Z,24.65
2019-03-05T10:18:12.086Z,24.67
2019-03-05T10:20:36.075Z,24.87
2019-03-05T10:23:05.863Z,23.42
2019-03-05T10:25:35.284Z,22.55
2019-03-05T10:28:05.026Z,21.93
2019-03-05T10:30:43.248Z,16.95
2019-03-05T10:33:13.185Z,18.67
2019-03-05T10:35:42.624Z,18.75
2019-03-05T10:38:12.874Z,26.50
2019-03-05T10:40:44.870Z,25.23
2019-03-05T10:43:16.316Z,25.23
2019-03-05T10:45:49.335Z,26.33
2019-03-05T10:48:23.958Z,22.62
2019-03-05T10:50:53.485Z,24.43
2019-03-05T10:53:22.929Z,19.00
2019-03-05T10:55:52.507Z,20.68
2019-03-05T10:58:32.758Z,22.37
2019-03-05T11:00:55.484Z,27.32
2019-03-05T11:03:27.375Z,25.30
2019-03-05T11:05:56.728Z,24.27
2019-03-05T11:08:27.171Z,16.27
2019-03-05T11:10:57.016Z,17.73
2019-03-05T11:13:26.081Z,17.00
2019-03-05T11:15:57.730Z,13.90
2019-03-05T11:18:29.817Z,14.35
2019-03-05T11:20:58.471Z,15.65
2019-03-05T11:23:27.847Z,12.93
2019-03-05T11:25:57.285Z,13.22
2019-03-05T11:28:26.721Z,11.85
2019-03-05T11:30:56.164Z,12.75
2019-03-05T11:33:25.616Z,13.62
2019-03-05T11:35:54.990Z,11.85
2019-03-05T11:38:24.375Z,11.57
2019-03-05T11:40:53.729Z,10.38
2019-03-05T11:43:23.174Z,10.38
2019-03-05T11:45:52.551Z,11.22
2019-03-05T11:48:21.960Z,9.15
2019-03-05T11:50:51.699Z,8.13
2019-03-05T11:53:20.905Z,9.03
2019-03-05T11:55:50.260Z,9.55
2019-03-05T11:58:19.314Z,8.37
2019-03-05T12:00:59.032Z,7.50
2019-03-05T12:03:28.467Z,7.37
2019-03-05T12:05:57.831Z,7.92
2019-03-05T12:08:27.263Z,7.72
2019-03-05T12:10:56.313Z,7.60
2019-03-05T12:13:25.390Z,7.23
2019-03-05T12:15:54.823Z,6.55
2019-03-05T12:18:25.440Z,7.08
2019-03-05T12:20:54.943Z,7.08
2019-03-05T12:23:24.298Z,7.15
2019-03-05T12:25:53.662Z,7.37
2019-03-05T12:28:23.009Z,8.75
2019-03-05T12:30:52.376Z,7.53
2019-03-05T12:33:21.789Z,8.18
2019-03-05T12:35:51.135Z,9.13
2019-03-05T12:38:20.190Z,6.93
2019-03-05T12:40:49.561Z,6.95
2019-03-05T12:43:18.924Z,6.85
2019-03-05T12:45:48.295Z,6.75
2019-03-05T12:48:17.433Z,6.97
2019-03-05T12:50:46.504Z,7.80
2019-03-05T12:53:16.130Z,6.60
2019-03-05T12:55:45.326Z,7.47
2019-03-05T12:58:14.392Z,6.17
2019-03-05T13:00:43.555Z,7.43
2019-03-05T13:03:12.925Z,5.55
2019-03-05T13:05:42.269Z,4.42
2019-03-05T13:08:11.640Z,4.58
2019-03-05T13:10:41.051Z,4.35
2019-03-05T13:13:13.850Z,4.50
2019-03-05T13:15:42.391Z,4.10
2019-03-05T13:18:14.198Z,4.50
2019-03-05T13:20:42.901Z,4.35
2019-03-05T13:23:12.255Z,3.95
2019-03-05T13:25:41.614Z,4.65
2019-03-05T13:28:11.044Z,4.70
2019-03-05T13:30:40.589Z,4.72
2019-03-05T13:33:09.713Z,5.77
2019-03-05T13:35:39.123Z,4.20
2019-03-05T13:38:12.549Z,5.00
2019-03-05T13:40:42.000Z,5.35
2019-03-05T13:43:11.361Z,4.95
2019-03-05T13:45:42.842Z,6.17
2019-03-05T13:48:32.215Z,4.45
2019-03-05T13:51:10.046Z,5.15
2019-03-05T13:54:01.272Z,4.87
2019-03-05T13:56:54.869Z,11.45
2019-03-05T13:59:36.991Z,13.88
2019-03-05T14:02:08.030Z,8.48
2019-03-05T14:04:49.165Z,5.80
2019-03-05T14:07:27.306Z,5.58
2019-03-05T14:09:56.672Z,5.65
2019-03-05T14:12:26.088Z,5.80
2019-03-05T14:14:57.715Z,9.80
2019-03-05T14:17:26.675Z,7.35
2019-03-05T14:19:56.013Z,8.78
2019-03-05T14:22:25.377Z,9.03
2019-03-05T14:25:02.087Z,5.62
2019-03-05T14:27:25.809Z,4.90
2019-03-05T14:29:55.208Z,6.03
2019-03-05T14:32:24.741Z,6.58
2019-03-05T14:35:00.364Z,5.40
2019-03-05T14:37:31.015Z,5.15
2019-03-05T14:40:22.214Z,5.20
2019-03-05T14:42:31.797Z,6.17
2019-03-05T14:45:01.261Z,4.37
2019-03-05T14:47:30.701Z,5.05
2019-03-05T14:50:00.217Z,4.40
2019-03-05T14:52:29.991Z,4.72
2019-03-05T14:54:59.433Z,4.92
2019-03-05T14:57:28.867Z,5.70
2019-03-05T14:59:58.262Z,5.10
2019-03-05T15:02:27.701Z,5.35
2019-03-05T15:04:57.164Z,5.22
2019-03-05T15:07:26.589Z,6.45
2019-03-05T15:09:56.001Z,7.65
2019-03-05T15:12:25.348Z,8.53
2019-03-05T15:14:54.717Z,12.30
2019-03-05T15:17:24.223Z,12.37
2019-03-05T15:19:53.610Z,13.25
2019-03-05T15:22:22.970Z,9.70
2019-03-05T15:24:52.406Z,7.00
2019-03-05T15:27:21.799Z,6.80
2019-03-05T15:29:51.203Z,9.93
2019-03-05T15:32:20.624Z,11.33
2019-03-05T15:34:50.053Z,16.23
2019-03-05T15:37:19.471Z,17.15
2019-03-05T15:39:48.952Z,15.15
2019-03-05T15:42:18.281Z,17.17
2019-03-05T15:44:47.745Z,59.33
2019-03-05T15:47:17.212Z,50.48
2019-03-05T15:49:46.685Z,14.43
2019-03-05T15:52:16.036Z,12.95
2019-03-05T15:54:45.403Z,22.65
2019-03-05T15:57:14.784Z,99.83
2019-03-05T15:59:44.166Z,79.07
2019-03-05T16:02:13.742Z,35.25
2019-03-05T16:04:43.842Z,39.98
2019-03-05T16:07:13.429Z,33.53
2019-03-05T16:09:43.951Z,30.10
2019-03-05T16:12:13.408Z,23.75
2019-03-05T16:14:42.825Z,18.85
2019-03-05T16:17:12.179Z,16.35
2019-03-05T16:19:41.537Z,17.62
2019-03-05T16:22:14.268Z,17.85
2019-03-05T16:24:42.046Z,19.07
2019-03-05T16:27:11.738Z,13.88
2019-03-05T16:29:41.164Z,17.73
2019-03-05T16:32:23.060Z,48.25
2019-03-05T16:34:53.859Z,34.65
2019-03-05T16:37:24.947Z,22.73
2019-03-05T16:40:05.360Z,26.35
2019-03-05T16:42:43.749Z,45.67
2019-03-05T16:45:23.587Z,23.32
2019-03-05T16:48:15.614Z,15.50
2019-03-05T16:51:01.742Z,17.30
2019-03-05T16:53:48.778Z,22.15
2019-03-05T16:56:22.782Z,27.07
2019-03-05T16:59:09.933Z,21.75
2019-03-05T17:01:40.964Z,34.58
2019-03-05T17:04:27.894Z,29.63
2019-03-05T17:07:15.310Z,30.40
2019-03-05T17:09:48.967Z,44.53
2019-03-05T17:12:18.410Z,23.20
2019-03-05T17:14:47.849Z,17.80
2019-03-05T17:17:17.333Z,17.92
2019-03-05T17:19:46.892Z,14.95
2019-03-05T17:22:16.312Z,15.20
2019-03-05T17:24:45.686Z,19.32
2019-03-05T17:27:15.626Z,17.92
2019-03-05T17:29:45.077Z,17.35
2019-03-05T17:32:15.230Z,21.12
2019-03-05T17:34:44.588Z,20.02
2019-03-05T17:37:13.995Z,24.65
2019-03-05T17:39:43.445Z,26.80
2019-03-05T17:42:12.883Z,27.87
2019-03-05T17:44:42.283Z,21.85
2019-03-05T17:47:11.707Z,17.30
2019-03-05T17:49:41.160Z,15.28
2019-03-05T17:52:10.635Z,20.37
2019-03-05T17:54:40.075Z,21.30
2019-03-05T17:57:09.497Z,20.57
2019-03-05T17:59:38.919Z,17.52
2019-03-05T18:02:08.356Z,19.57
2019-03-05T18:04:37.809Z,17.92
2019-03-05T18:07:07.269Z,19.87
2019-03-05T18:09:36.714Z,23.65
2019-03-05T18:12:06.139Z,20.55
2019-03-05T18:14:35.529Z,22.65
2019-03-05T18:17:05.599Z,24.43
2019-03-05T18:19:35.063Z,21.85
2019-03-05T18:22:04.477Z,20.25
2019-03-05T18:24:33.929Z,17.57
2019-03-05T18:27:03.284Z,17.50
2019-03-05T18:29:33.014Z,15.05
2019-03-05T18:32:02.401Z,20.20
2019-03-05T18:34:31.799Z,22.95
2019-03-05T18:37:01.264Z,23.05
2019-03-05T18:39:30.635Z,16.77
2019-03-05T18:42:00.357Z,17.70
2019-03-05T18:44:29.866Z,16.48
2019-03-05T18:46:59.380Z,16.62
2019-03-05T18:49:28.964Z,14.90
2019-03-05T18:51:58.413Z,15.68
2019-03-05T18:54:27.685Z,14.45
2019-03-05T18:56:57.146Z,18.60
2019-03-05T18:59:26.583Z,16.77
2019-03-05T19:01:57.554Z,14.85
2019-03-05T19:04:27.006Z,16.05
2019-03-05T19:06:56.379Z,21.62
2019-03-05T19:09:25.816Z,18.50
2019-03-05T19:11:55.294Z,24.87
2019-03-05T19:14:24.728Z,22.10
2019-03-05T19:16:54.503Z,14.43
2019-03-05T19:19:25.706Z,12.95
2019-03-05T19:21:55.197Z,16.37
2019-03-05T19:24:24.598Z,17.05
2019-03-05T19:26:54.024Z,20.20
2019-03-05T19:29:23.452Z,30.55
2019-03-05T19:31:52.828Z,18.52
2019-03-05T19:34:22.279Z,15.95
2019-03-05T19:36:51.724Z,13.95
2019-03-05T19:39:21.093Z,13.83
2019-03-05T19:41:56.144Z,13.80
2019-03-05T19:44:21.742Z,13.08
2019-03-05T19:46:51.183Z,17.15
2019-03-05T19:49:20.636Z,14.85
2019-03-05T19:51:50.156Z,16.10
2019-03-05T19:54:19.626Z,15.63
2019-03-05T19:56:49.088Z,17.40
2019-03-05T19:59:18.507Z,18.67
2019-03-05T20:01:47.951Z,18.48
2019-03-05T20:04:17.488Z,18.00
2019-03-05T20:06:46.926Z,16.42
2019-03-05T20:09:18.674Z,16.00
2019-03-05T20:11:48.127Z,16.17
2019-03-05T20:14:17.590Z,15.68
2019-03-05T20:16:47.059Z,14.47
2019-03-05T20:19:16.503Z,15.45
2019-03-05T20:21:45.988Z,16.75
2019-03-05T20:24:15.439Z,19.62
2019-03-05T20:26:45.167Z,18.57
2019-03-05T20:29:14.722Z,20.43
2019-03-05T20:31:44.087Z,26.35
2019-03-05T20:34:13.554Z,26.68
2019-03-05T20:36:42.969Z,28.90
2019-03-05T20:39:12.690Z,26.33
2019-03-05T20:41:42.063Z,48.73
2019-03-05T20:44:11.502Z,32.90
2019-03-05T20:46:40.942Z,25.57
2019-03-05T20:49:10.326Z,23.30
2019-03-05T20:51:39.984Z,21.20
2019-03-05T20:54:09.429Z,20.70
2019-03-05T20:56:38.890Z,22.10
2019-03-05T20:59:08.336Z,20.12
2019-03-05T21:01:37.771Z,20.72
2019-03-05T21:04:07.387Z,21.17
2019-03-05T21:06:36.837Z,19.80
2019-03-05T21:09:09.174Z,21.37
2019-03-05T21:11:38.632Z,22.90
2019-03-05T21:14:08.028Z,20.77
2019-03-05T21:16:37.393Z,22.40
2019-03-05T21:19:06.959Z,18.92
2019-03-05T21:21:36.399Z,14.95
2019-03-05T21:24:06.012Z,13.65
2019-03-05T21:26:35.425Z,21.93
2019-03-05T21:29:04.870Z,14.73
2019-03-05T21:31:34.250Z,13.08
2019-03-05T21:34:03.666Z,19.32
2019-03-05T21:36:33.040Z,19.23
2019-03-05T21:39:02.752Z,34.45
2019-03-05T21:41:32.199Z,16.07
2019-03-05T21:44:01.555Z,16.05
2019-03-05T21:46:31.002Z,17.77
2019-03-05T21:49:00.425Z,18.05
2019-03-05T21:51:29.811Z,16.60
2019-03-05T21:53:59.171Z,18.30
2019-03-05T21:56:28.604Z,18.02
2019-03-05T21:58:58.042Z,18.85
2019-03-05T22:01:27.476Z,19.30
2019-03-05T22:03:56.837Z,20.30
2019-03-05T22:06:26.286Z,21.17
2019-03-05T22:08:55.725Z,24.82
2019-03-05T22:11:25.163Z,30.72
2019-03-05T22:13:54.596Z,27.90
2019-03-05T22:16:24.036Z,22.42
2019-03-05T22:18:53.396Z,20.30
2019-03-05T22:21:22.773Z,18.95
2019-03-05T22:23:52.206Z,19.12
2019-03-05T22:26:21.921Z,19.87
2019-03-05T22:28:51.345Z,20.32
2019-03-05T22:31:20.784Z,24.67
2019-03-05T22:33:50.172Z,21.02
2019-03-05T22:36:19.589Z,21.50
2019-03-05T22:38:49.024Z,21.37
2019-03-05T22:41:18.372Z,22.00
2019-03-05T22:43:47.733Z,22.75
2019-03-05T22:46:17.105Z,25.15
2019-03-05T22:48:46.483Z,22.42
2019-03-05T22:51:15.909Z,22.62
2019-03-05T22:53:45.275Z,21.62
2019-03-05T22:56:14.701Z,21.17
2019-03-05T22:58:44.073Z,19.85
2019-03-05T23:01:13.963Z,19.20
2019-03-05T23:03:43.889Z,20.30
2019-03-05T23:06:13.813Z,19.23
2019-03-05T23:08:43.397Z,19.07
2019-03-05T23:11:12.809Z,19.27
2019-03-05T23:13:42.522Z,18.90
2019-03-05T23:16:11.932Z,19.80
2019-03-05T23:18:41.353Z,21.27
2019-03-05T23:21:10.868Z,20.32
2019-03-05T23:23:40.287Z,20.25
2019-03-05T23:26:09.909Z,22.25
2019-03-05T23:28:39.556Z,22.90
2019-03-05T23:31:11.692Z,19.23
2019-03-05T23:33:41.074Z,13.68
2019-03-05T23:36:10.609Z,14.83
2019-03-05T23:38:39.972Z,11.80
2019-03-05T23:41:09.328Z,12.15
2019-03-05T23:43:38.776Z,11.85
2019-03-05T23:46:08.145Z,11.25
2019-03-05T23:48:37.571Z,11.60
2019-03-05T23:51:06.919Z,11.80
2019-03-05T23:53:36.389Z,11.83
2019-03-05T23:56:05.757Z,11.73
2019-03-05T23:58:35.126Z,11.45
